Shin-oh Maru — JG5594 — position and weather

sailwx.info

Track history (hours):
 
Tides and Currents Weather Stations Pressure Air Temp Water Temp Dewpoint Dewpoint Depression Visibility Wind Speed Wind Dir Waves Ship Positions

Shin-oh Maru

Last reported at 2016-Sep-30 10:31 UTC. Time now 2016-Sep-30 11:47 UTC.
Position N 35°38' E 139°46'.

Length 161 m; draft 6.8 m.

Type: Cargo ship. MMSI: 431100859.

Date/timePositionNaut miles runAvg speedWind from/ knotsBaromVisibWave heightAir tempDewpointWater temp
2016-Sep-30 10:31N 35°38' E 139°46'0 0.0
2016-Sep-30 08:31N 35°38' E 139°46'17 8.9
2016-Sep-30 06:33N 35°20' E 139°45'3010.2
2016-Sep-30 03:33N 34°58' E 140°10'1918.6
2016-Sep-30 02:32N 35°08' E 140°29'10018.4
2016-Sep-29 21:08N 36°40' E 141°17'90 1.8
2016-Sep-27 19:32N 35°16' E 140°38'42 8.5
2016-Sep-27 14:33N 35°28' E 139°48'1010.2
2016-Sep-27 13:33N 35°38' E 139°46'0 0.0
2016-Sep-27 10:32N 35°38' E 139°46'63 6.2
2016-Sep-27 00:19N 35°49' E 141°03'7018.5
2016-Sep-26 20:33N 36°57' E 141°23'25 0.6
2016-Sep-25 00:10N 36°33' E 141°16'3018.4
2016-Sep-24 22:33N 36°04' E 141°07'1918.6
2016-Sep-24 21:33N 35°46' E 141°01'3717.9
2016-Sep-24 19:28N 35°14' E 140°36'1718.0
2016-Sep-24 18:33N 35°02' E 140°23'2020.2
2016-Sep-24 17:33N 34°52' E 140°01'1717.2
2016-Sep-24 16:33N 34°58' E 139°42'3115.5
2016-Sep-24 14:33N 35°29' E 139°49'10 4.7
2016-Sep-24 12:31N 35°38' E 139°46'0 0.0
2016-Sep-24 10:31N 35°38' E 139°46'0 0.0
2016-Sep-24 09:31N 35°38' E 139°46'47 7.3
2016-Sep-24 03:04N 35°07' E 140°30'1017.2
2016-Sep-24 02:31N 35°15' E 140°37'1818.6
2016-Sep-24 01:33N 35°29' E 140°49'21 0.4
2016-Sep-21 22:11N 35°48' E 141°01'4617.4
2016-Sep-21 19:33N 35°09' E 140°31'4113.8
2016-Sep-21 16:33N 34°60' E 139°42'38 5.3
2016-Sep-21 09:28N 35°38' E 139°46'0 0.0
2016-Sep-21 08:31N 35°38' E 139°46'0 0.0
2016-Sep-21 05:31N 35°38' E 139°46'0 0.0
2016-Sep-21 03:33N 35°38' E 139°46'9 9.4
2016-Sep-21 02:33N 35°30' E 139°53'0 0.0
2016-Sep-20 17:33N 35°30' E 139°53'0 0.0
2016-Sep-20 14:34N 35°30' E 139°53'0 0.0
2016-Sep-20 13:30N 35°30' E 139°53'0 0.0
2016-Sep-20 10:33N 35°30' E 139°53'  
Track history (hours):
 
Tides and Currents Weather Stations Pressure Air Temp Water Temp Dewpoint Dewpoint Depression Visibility Wind Speed Wind Dir Waves Ship Positions

Shin-oh Maru

Last reported at 2016-Sep-30 10:31 UTC. Time now 2016-Sep-30 11:47 UTC.
Position N 35°38' E 139°46'.

Length 161 m; draft 6.8 m.

Type: Cargo ship. MMSI: 431100859.

Date/timePositionNaut miles runAvg speedWind from/ knotsBaromVisibWave heightAir tempDewpointWater temp
2016-Sep-30 10:31N 35°38' E 139°46'0 0.0
2016-Sep-30 08:31N 35°38' E 139°46'17 8.9
2016-Sep-30 06:33N 35°20' E 139°45'3010.2
2016-Sep-30 03:33N 34°58' E 140°10'1918.6
2016-Sep-30 02:32N 35°08' E 140°29'10018.4
2016-Sep-29 21:08N 36°40' E 141°17'90 1.8
2016-Sep-27 19:32N 35°16' E 140°38'42 8.5
2016-Sep-27 14:33N 35°28' E 139°48'1010.2
2016-Sep-27 13:33N 35°38' E 139°46'0 0.0
2016-Sep-27 10:32N 35°38' E 139°46'63 6.2
2016-Sep-27 00:19N 35°49' E 141°03'7018.5
2016-Sep-26 20:33N 36°57' E 141°23'25 0.6
2016-Sep-25 00:10N 36°33' E 141°16'3018.4
2016-Sep-24 22:33N 36°04' E 141°07'1918.6
2016-Sep-24 21:33N 35°46' E 141°01'3717.9
2016-Sep-24 19:28N 35°14' E 140°36'1718.0
2016-Sep-24 18:33N 35°02' E 140°23'2020.2
2016-Sep-24 17:33N 34°52' E 140°01'1717.2
2016-Sep-24 16:33N 34°58' E 139°42'3115.5
2016-Sep-24 14:33N 35°29' E 139°49'10 4.7
2016-Sep-24 12:31N 35°38' E 139°46'0 0.0
2016-Sep-24 10:31N 35°38' E 139°46'0 0.0
2016-Sep-24 09:31N 35°38' E 139°46'47 7.3
2016-Sep-24 03:04N 35°07' E 140°30'1017.2
2016-Sep-24 02:31N 35°15' E 140°37'1818.6
2016-Sep-24 01:33N 35°29' E 140°49'21 0.4
2016-Sep-21 22:11N 35°48' E 141°01'4617.4
2016-Sep-21 19:33N 35°09' E 140°31'4113.8
2016-Sep-21 16:33N 34°60' E 139°42'38 5.3
2016-Sep-21 09:28N 35°38' E 139°46'0 0.0
2016-Sep-21 08:31N 35°38' E 139°46'0 0.0
2016-Sep-21 05:31N 35°38' E 139°46'0 0.0
2016-Sep-21 03:33N 35°38' E 139°46'9 9.4
2016-Sep-21 02:33N 35°30' E 139°53'0 0.0
2016-Sep-20 17:33N 35°30' E 139°53'0 0.0
2016-Sep-20 14:34N 35°30' E 139°53'0 0.0
2016-Sep-20 13:30N 35°30' E 139°53'0 0.0
2016-Sep-20 10:33N 35°30' E 139°53'  

Dump ship's entire track history